sensor_id;sensor_type;location;lat;lon;timestamp;P1;durP1;ratioP1;P2;durP2;ratioP2
49626;SDS011;35527;54.616;39.786;2023-07-13T00:01:14;3.78;;;2.05;;
49626;SDS011;35527;54.616;39.786;2023-07-13T00:04:20;6.33;;;1.87;;
49626;SDS011;35527;54.616;39.786;2023-07-13T00:07:25;5.05;;;2.30;;
49626;SDS011;35527;54.616;39.786;2023-07-13T00:10:28;4.88;;;2.28;;
49626;SDS011;35527;54.616;39.786;2023-07-13T00:13:30;4.15;;;2.08;;
49626;SDS011;35527;54.616;39.786;2023-07-13T00:16:36;3.80;;;1.90;;
49626;SDS011;35527;54.616;39.786;2023-07-13T00:19:39;5.53;;;2.00;;
49626;SDS011;35527;54.616;39.786;2023-07-13T00:22:43;3.90;;;2.03;;
49626;SDS011;35527;54.616;39.786;2023-07-13T00:25:45;4.18;;;1.98;;
49626;SDS011;35527;54.616;39.786;2023-07-13T00:28:53;3.65;;;1.50;;
49626;SDS011;35527;54.616;39.786;2023-07-13T00:31:57;5.18;;;2.40;;
49626;SDS011;35527;54.616;39.786;2023-07-13T00:34:59;4.85;;;2.10;;
49626;SDS011;35527;54.616;39.786;2023-07-13T00:38:04;5.67;;;2.00;;
49626;SDS011;35527;54.616;39.786;2023-07-13T00:44:19;3.22;;;1.70;;
49626;SDS011;35527;54.616;39.786;2023-07-13T00:50:32;5.95;;;2.30;;
49626;SDS011;35527;54.616;39.786;2023-07-13T00:53:36;6.05;;;2.13;;
49626;SDS011;35527;54.616;39.786;2023-07-13T00:56:40;3.92;;;1.92;;
49626;SDS011;35527;54.616;39.786;2023-07-13T00:59:47;4.90;;;2.20;;
49626;SDS011;35527;54.616;39.786;2023-07-13T01:02:59;3.40;;;2.20;;
49626;SDS011;35527;54.616;39.786;2023-07-13T01:06:05;3.00;;;1.73;;
49626;SDS011;35527;54.616;39.786;2023-07-13T01:09:08;5.65;;;2.00;;
49626;SDS011;35527;54.616;39.786;2023-07-13T01:12:13;4.82;;;2.10;;
49626;SDS011;35527;54.616;39.786;2023-07-13T01:18:38;5.68;;;1.98;;
49626;SDS011;35527;54.616;39.786;2023-07-13T01:21:42;4.35;;;1.77;;
49626;SDS011;35527;54.616;39.786;2023-07-13T01:24:46;4.35;;;2.20;;
49626;SDS011;35527;54.616;39.786;2023-07-13T01:27:52;3.47;;;1.90;;
49626;SDS011;35527;54.616;39.786;2023-07-13T01:31:00;3.85;;;1.92;;
49626;SDS011;35527;54.616;39.786;2023-07-13T01:34:04;4.80;;;1.85;;
49626;SDS011;35527;54.616;39.786;2023-07-13T01:37:07;5.07;;;2.00;;
49626;SDS011;35527;54.616;39.786;2023-07-13T01:40:15;4.45;;;2.22;;
49626;SDS011;35527;54.616;39.786;2023-07-13T01:43:23;4.18;;;1.90;;
49626;SDS011;35527;54.616;39.786;2023-07-13T01:46:28;5.65;;;2.10;;
49626;SDS011;35527;54.616;39.786;2023-07-13T01:49:32;3.72;;;1.90;;
49626;SDS011;35527;54.616;39.786;2023-07-13T01:52:39;3.50;;;1.90;;
49626;SDS011;35527;54.616;39.786;2023-07-13T01:55:42;4.70;;;2.00;;
49626;SDS011;35527;54.616;39.786;2023-07-13T01:58:47;3.90;;;1.90;;
49626;SDS011;35527;54.616;39.786;2023-07-13T02:01:50;4.97;;;2.00;;
49626;SDS011;35527;54.616;39.786;2023-07-13T02:08:00;4.40;;;2.10;;
49626;SDS011;35527;54.616;39.786;2023-07-13T02:11:05;3.90;;;2.00;;
49626;SDS011;35527;54.616;39.786;2023-07-13T02:14:09;5.28;;;2.10;;
49626;SDS011;35527;54.616;39.786;2023-07-13T02:17:19;4.30;;;1.83;;
49626;SDS011;35527;54.616;39.786;2023-07-13T02:20:24;4.03;;;1.90;;
49626;SDS011;35527;54.616;39.786;2023-07-13T02:23:30;5.50;;;2.05;;
49626;SDS011;35527;54.616;39.786;2023-07-13T02:26:33;4.00;;;2.00;;
49626;SDS011;35527;54.616;39.786;2023-07-13T02:29:38;4.88;;;2.05;;
49626;SDS011;35527;54.616;39.786;2023-07-13T02:32:43;3.55;;;1.80;;
49626;SDS011;35527;54.616;39.786;2023-07-13T02:35:47;5.05;;;1.95;;
49626;SDS011;35527;54.616;39.786;2023-07-13T02:38:50;4.70;;;2.10;;
49626;SDS011;35527;54.616;39.786;2023-07-13T02:41:56;3.45;;;1.80;;
49626;SDS011;35527;54.616;39.786;2023-07-13T02:44:59;3.28;;;1.85;;
49626;SDS011;35527;54.616;39.786;2023-07-13T02:48:02;4.68;;;2.08;;
49626;SDS011;35527;54.616;39.786;2023-07-13T02:51:05;3.67;;;1.88;;
49626;SDS011;35527;54.616;39.786;2023-07-13T02:54:08;4.40;;;2.05;;
49626;SDS011;35527;54.616;39.786;2023-07-13T02:57:14;5.55;;;2.03;;
49626;SDS011;35527;54.616;39.786;2023-07-13T03:00:18;5.40;;;1.88;;
49626;SDS011;35527;54.616;39.786;2023-07-13T03:03:21;4.30;;;1.80;;
49626;SDS011;35527;54.616;39.786;2023-07-13T03:06:25;5.00;;;2.20;;
49626;SDS011;35527;54.616;39.786;2023-07-13T03:09:34;5.15;;;2.10;;
49626;SDS011;35527;54.616;39.786;2023-07-13T03:12:43;5.07;;;1.92;;
49626;SDS011;35527;54.616;39.786;2023-07-13T03:15:54;4.68;;;2.00;;
49626;SDS011;35527;54.616;39.786;2023-07-13T03:18:57;5.38;;;2.10;;
49626;SDS011;35527;54.616;39.786;2023-07-13T03:22:03;5.20;;;1.90;;
49626;SDS011;35527;54.616;39.786;2023-07-13T03:25:07;5.95;;;2.00;;
49626;SDS011;35527;54.616;39.786;2023-07-13T03:28:11;5.35;;;1.88;;
49626;SDS011;35527;54.616;39.786;2023-07-13T03:31:18;4.35;;;1.80;;
49626;SDS011;35527;54.616;39.786;2023-07-13T03:34:23;4.45;;;1.90;;
49626;SDS011;35527;54.616;39.786;2023-07-13T03:37:27;3.92;;;1.80;;
49626;SDS011;35527;54.616;39.786;2023-07-13T03:40:31;4.78;;;2.00;;
49626;SDS011;35527;54.616;39.786;2023-07-13T03:43:41;4.72;;;1.90;;
49626;SDS011;35527;54.616;39.786;2023-07-13T03:46:46;3.72;;;1.75;;
49626;SDS011;35527;54.616;39.786;2023-07-13T03:49:49;3.63;;;1.95;;
49626;SDS011;35527;54.616;39.786;2023-07-13T03:52:52;3.63;;;1.80;;
49626;SDS011;35527;54.616;39.786;2023-07-13T03:55:58;3.97;;;1.90;;
49626;SDS011;35527;54.616;39.786;2023-07-13T03:59:01;3.65;;;1.80;;
49626;SDS011;35527;54.616;39.786;2023-07-13T04:02:05;4.93;;;1.85;;
49626;SDS011;35527;54.616;39.786;2023-07-13T04:05:09;5.57;;;1.90;;
49626;SDS011;35527;54.616;39.786;2023-07-13T04:08:14;4.43;;;1.80;;
49626;SDS011;35527;54.616;39.786;2023-07-13T04:11:17;4.13;;;1.80;;
49626;SDS011;35527;54.616;39.786;2023-07-13T04:14:25;5.20;;;2.40;;
49626;SDS011;35527;54.616;39.786;2023-07-13T04:17:32;4.20;;;1.90;;
49626;SDS011;35527;54.616;39.786;2023-07-13T04:20:35;4.13;;;2.00;;
49626;SDS011;35527;54.616;39.786;2023-07-13T04:23:39;5.10;;;2.25;;
49626;SDS011;35527;54.616;39.786;2023-07-13T04:26:42;3.65;;;2.15;;
49626;SDS011;35527;54.616;39.786;2023-07-13T04:29:47;3.75;;;1.90;;
49626;SDS011;35527;54.616;39.786;2023-07-13T04:32:51;5.95;;;2.00;;
49626;SDS011;35527;54.616;39.786;2023-07-13T04:35:54;3.50;;;1.67;;
49626;SDS011;35527;54.616;39.786;2023-07-13T04:39:02;5.68;;;1.83;;
49626;SDS011;35527;54.616;39.786;2023-07-13T04:42:06;4.40;;;1.90;;
49626;SDS011;35527;54.616;39.786;2023-07-13T04:45:10;4.67;;;1.90;;
49626;SDS011;35527;54.616;39.786;2023-07-13T04:48:14;5.38;;;2.30;;
49626;SDS011;35527;54.616;39.786;2023-07-13T04:51:20;3.65;;;1.88;;
49626;SDS011;35527;54.616;39.786;2023-07-13T04:54:23;5.35;;;1.98;;
49626;SDS011;35527;54.616;39.786;2023-07-13T04:57:26;7.43;;;2.20;;
49626;SDS011;35527;54.616;39.786;2023-07-13T05:03:35;4.68;;;2.10;;
49626;SDS011;35527;54.616;39.786;2023-07-13T05:06:40;5.35;;;2.15;;
49626;SDS011;35527;54.616;39.786;2023-07-13T05:09:44;5.05;;;2.10;;
49626;SDS011;35527;54.616;39.786;2023-07-13T05:12:47;4.15;;;1.80;;
49626;SDS011;35527;54.616;39.786;2023-07-13T05:16:01;4.57;;;2.10;;
49626;SDS011;35527;54.616;39.786;2023-07-13T05:19:06;5.28;;;2.20;;
49626;SDS011;35527;54.616;39.786;2023-07-13T05:22:12;3.63;;;1.80;;
49626;SDS011;35527;54.616;39.786;2023-07-13T05:25:16;4.50;;;1.95;;
49626;SDS011;35527;54.616;39.786;2023-07-13T05:28:19;4.45;;;2.00;;
49626;SDS011;35527;54.616;39.786;2023-07-13T05:31:24;5.40;;;2.35;;
49626;SDS011;35527;54.616;39.786;2023-07-13T05:34:28;5.68;;;2.08;;
49626;SDS011;35527;54.616;39.786;2023-07-13T05:37:32;5.72;;;2.30;;
49626;SDS011;35527;54.616;39.786;2023-07-13T05:40:35;4.10;;;1.90;;
49626;SDS011;35527;54.616;39.786;2023-07-13T05:43:57;5.13;;;1.85;;
49626;SDS011;35527;54.616;39.786;2023-07-13T05:47:00;3.63;;;1.80;;
49626;SDS011;35527;54.616;39.786;2023-07-13T05:50:06;4.90;;;2.03;;
49626;SDS011;35527;54.616;39.786;2023-07-13T05:53:10;5.38;;;1.88;;
49626;SDS011;35527;54.616;39.786;2023-07-13T05:56:15;9.50;;;2.10;;
49626;SDS011;35527;54.616;39.786;2023-07-13T05:59:19;6.32;;;2.20;;
49626;SDS011;35527;54.616;39.786;2023-07-13T06:02:21;5.25;;;2.20;;
49626;SDS011;35527;54.616;39.786;2023-07-13T06:05:25;5.28;;;2.00;;
49626;SDS011;35527;54.616;39.786;2023-07-13T06:08:28;3.75;;;1.90;;
49626;SDS011;35527;54.616;39.786;2023-07-13T06:11:35;5.93;;;2.00;;
49626;SDS011;35527;54.616;39.786;2023-07-13T06:14:38;4.07;;;1.77;;
49626;SDS011;35527;54.616;39.786;2023-07-13T06:17:43;4.50;;;2.00;;
49626;SDS011;35527;54.616;39.786;2023-07-13T06:20:46;5.32;;;2.03;;
49626;SDS011;35527;54.616;39.786;2023-07-13T06:23:50;4.63;;;1.92;;
49626;SDS011;35527;54.616;39.786;2023-07-13T06:26:54;3.92;;;1.70;;
49626;SDS011;35527;54.616;39.786;2023-07-13T06:29:59;4.90;;;1.73;;
49626;SDS011;35527;54.616;39.786;2023-07-13T06:33:03;4.97;;;1.93;;
49626;SDS011;35527;54.616;39.786;2023-07-13T06:36:07;4.65;;;1.80;;
49626;SDS011;35527;54.616;39.786;2023-07-13T06:39:13;4.35;;;1.83;;
49626;SDS011;35527;54.616;39.786;2023-07-13T06:42:18;3.85;;;1.75;;
49626;SDS011;35527;54.616;39.786;2023-07-13T06:45:20;6.70;;;2.08;;
49626;SDS011;35527;54.616;39.786;2023-07-13T06:48:25;6.82;;;2.28;;
49626;SDS011;35527;54.616;39.786;2023-07-13T06:51:28;5.15;;;2.10;;
49626;SDS011;35527;54.616;39.786;2023-07-13T06:54:35;4.47;;;1.88;;
49626;SDS011;35527;54.616;39.786;2023-07-13T06:57:38;7.03;;;1.90;;
49626;SDS011;35527;54.616;39.786;2023-07-13T07:00:41;4.22;;;1.90;;
49626;SDS011;35527;54.616;39.786;2023-07-13T07:03:45;5.18;;;1.80;;
49626;SDS011;35527;54.616;39.786;2023-07-13T07:06:49;6.95;;;2.17;;
49626;SDS011;35527;54.616;39.786;2023-07-13T07:09:52;3.75;;;1.70;;
49626;SDS011;35527;54.616;39.786;2023-07-13T07:12:56;4.65;;;1.80;;
49626;SDS011;35527;54.616;39.786;2023-07-13T07:15:59;5.00;;;2.10;;
49626;SDS011;35527;54.616;39.786;2023-07-13T07:19:02;5.22;;;2.00;;
49626;SDS011;35527;54.616;39.786;2023-07-13T07:22:05;6.03;;;1.92;;
49626;SDS011;35527;54.616;39.786;2023-07-13T07:25:08;7.82;;;2.10;;
49626;SDS011;35527;54.616;39.786;2023-07-13T07:28:14;5.72;;;2.08;;
49626;SDS011;35527;54.616;39.786;2023-07-13T07:31:24;5.43;;;2.10;;
49626;SDS011;35527;54.616;39.786;2023-07-13T07:34:32;4.95;;;2.00;;
49626;SDS011;35527;54.616;39.786;2023-07-13T07:37:34;5.22;;;2.15;;
49626;SDS011;35527;54.616;39.786;2023-07-13T07:40:40;5.13;;;2.03;;
49626;SDS011;35527;54.616;39.786;2023-07-13T07:43:47;4.97;;;1.80;;
49626;SDS011;35527;54.616;39.786;2023-07-13T07:46:51;6.85;;;2.17;;
49626;SDS011;35527;54.616;39.786;2023-07-13T07:49:55;4.00;;;2.15;;
49626;SDS011;35527;54.616;39.786;2023-07-13T07:52:59;7.50;;;2.38;;
49626;SDS011;35527;54.616;39.786;2023-07-13T07:56:06;5.88;;;2.20;;
49626;SDS011;35527;54.616;39.786;2023-07-13T07:59:30;4.82;;;1.85;;
49626;SDS011;35527;54.616;39.786;2023-07-13T08:02:57;6.47;;;2.22;;
49626;SDS011;35527;54.616;39.786;2023-07-13T08:06:22;6.65;;;2.08;;
49626;SDS011;35527;54.616;39.786;2023-07-13T08:09:28;5.72;;;1.95;;
49626;SDS011;35527;54.616;39.786;2023-07-13T08:12:35;6.03;;;1.80;;
49626;SDS011;35527;54.616;39.786;2023-07-13T08:15:44;3.92;;;1.85;;
49626;SDS011;35527;54.616;39.786;2023-07-13T08:18:49;3.75;;;1.95;;
49626;SDS011;35527;54.616;39.786;2023-07-13T08:21:52;4.72;;;2.10;;
49626;SDS011;35527;54.616;39.786;2023-07-13T08:24:55;5.55;;;2.13;;
49626;SDS011;35527;54.616;39.786;2023-07-13T08:27:59;4.47;;;2.00;;
49626;SDS011;35527;54.616;39.786;2023-07-13T08:31:07;4.18;;;2.22;;
49626;SDS011;35527;54.616;39.786;2023-07-13T08:34:12;5.28;;;2.28;;
49626;SDS011;35527;54.616;39.786;2023-07-13T08:37:17;8.02;;;2.63;;
49626;SDS011;35527;54.616;39.786;2023-07-13T08:40:24;5.25;;;2.10;;
49626;SDS011;35527;54.616;39.786;2023-07-13T08:43:35;5.55;;;2.00;;
49626;SDS011;35527;54.616;39.786;2023-07-13T08:46:40;7.60;;;1.95;;
49626;SDS011;35527;54.616;39.786;2023-07-13T08:49:44;4.63;;;2.22;;
49626;SDS011;35527;54.616;39.786;2023-07-13T08:52:49;7.32;;;2.10;;
49626;SDS011;35527;54.616;39.786;2023-07-13T08:55:56;6.40;;;2.15;;
49626;SDS011;35527;54.616;39.786;2023-07-13T08:59:03;7.00;;;2.33;;
49626;SDS011;35527;54.616;39.786;2023-07-13T09:05:45;7.93;;;1.90;;
49626;SDS011;35527;54.616;39.786;2023-07-13T09:09:00;6.05;;;2.10;;
49626;SDS011;35527;54.616;39.786;2023-07-13T09:12:16;4.85;;;2.15;;
49626;SDS011;35527;54.616;39.786;2023-07-13T09:15:28;4.03;;;1.60;;
49626;SDS011;35527;54.616;39.786;2023-07-13T09:18:47;3.85;;;1.80;;
49626;SDS011;35527;54.616;39.786;2023-07-13T09:21:54;6.35;;;1.98;;
49626;SDS011;35527;54.616;39.786;2023-07-13T09:25:05;6.82;;;2.20;;
49626;SDS011;35527;54.616;39.786;2023-07-13T09:28:20;6.90;;;2.40;;
49626;SDS011;35527;54.616;39.786;2023-07-13T09:31:32;4.75;;;2.10;;
49626;SDS011;35527;54.616;39.786;2023-07-13T09:34:37;5.63;;;2.20;;
49626;SDS011;35527;54.616;39.786;2023-07-13T09:37:40;5.97;;;1.90;;
49626;SDS011;35527;54.616;39.786;2023-07-13T09:44:01;6.20;;;2.25;;
49626;SDS011;35527;54.616;39.786;2023-07-13T09:47:20;6.18;;;2.30;;
49626;SDS011;35527;54.616;39.786;2023-07-13T09:50:27;5.15;;;1.98;;
49626;SDS011;35527;54.616;39.786;2023-07-13T09:53:31;5.10;;;2.00;;
49626;SDS011;35527;54.616;39.786;2023-07-13T09:56:35;5.63;;;2.28;;
49626;SDS011;35527;54.616;39.786;2023-07-13T09:59:41;5.00;;;2.20;;
49626;SDS011;35527;54.616;39.786;2023-07-13T10:02:57;3.47;;;1.85;;
49626;SDS011;35527;54.616;39.786;2023-07-13T10:06:11;5.53;;;2.40;;
49626;SDS011;35527;54.616;39.786;2023-07-13T10:09:19;5.15;;;2.15;;
49626;SDS011;35527;54.616;39.786;2023-07-13T10:12:24;5.55;;;2.15;;
49626;SDS011;35527;54.616;39.786;2023-07-13T10:15:28;5.63;;;2.60;;
49626;SDS011;35527;54.616;39.786;2023-07-13T10:18:38;5.33;;;2.97;;
49626;SDS011;35527;54.616;39.786;2023-07-13T10:21:49;5.70;;;3.40;;
49626;SDS011;35527;54.616;39.786;2023-07-13T10:24:57;7.00;;;4.13;;
49626;SDS011;35527;54.616;39.786;2023-07-13T10:28:44;5.63;;;2.75;;
49626;SDS011;35527;54.616;39.786;2023-07-13T10:31:29;6.53;;;2.90;;
49626;SDS011;35527;54.616;39.786;2023-07-13T10:34:33;5.97;;;3.00;;
49626;SDS011;35527;54.616;39.786;2023-07-13T10:37:51;4.60;;;2.50;;
49626;SDS011;35527;54.616;39.786;2023-07-13T10:41:04;6.38;;;3.20;;
49626;SDS011;35527;54.616;39.786;2023-07-13T10:44:21;5.75;;;2.67;;
49626;SDS011;35527;54.616;39.786;2023-07-13T10:47:30;5.60;;;2.60;;
49626;SDS011;35527;54.616;39.786;2023-07-13T10:50:35;5.22;;;2.10;;
49626;SDS011;35527;54.616;39.786;2023-07-13T10:53:43;4.18;;;1.80;;
49626;SDS011;35527;54.616;39.786;2023-07-13T10:56:50;3.38;;;1.85;;
49626;SDS011;35527;54.616;39.786;2023-07-13T11:03:23;2.35;;;1.30;;
49626;SDS011;35527;54.616;39.786;2023-07-13T11:06:34;2.67;;;1.38;;
49626;SDS011;35527;54.616;39.786;2023-07-13T11:09:50;4.63;;;1.60;;
49626;SDS011;35527;54.616;39.786;2023-07-13T11:12:57;2.80;;;1.42;;
49626;SDS011;35527;54.616;39.786;2023-07-13T11:16:01;4.28;;;1.58;;
49626;SDS011;35527;54.616;39.786;2023-07-13T11:22:22;3.42;;;1.70;;
49626;SDS011;35527;54.616;39.786;2023-07-13T11:25:45;3.70;;;2.05;;
49626;SDS011;35527;54.616;39.786;2023-07-13T11:28:50;4.18;;;1.70;;
49626;SDS011;35527;54.616;39.786;2023-07-13T11:31:57;3.28;;;1.50;;
49626;SDS011;35527;54.616;39.786;2023-07-13T11:35:02;3.58;;;1.60;;
49626;SDS011;35527;54.616;39.786;2023-07-13T11:38:12;4.60;;;1.88;;
49626;SDS011;35527;54.616;39.786;2023-07-13T11:41:31;4.25;;;1.65;;
49626;SDS011;35527;54.616;39.786;2023-07-13T11:44:40;3.58;;;1.60;;
49626;SDS011;35527;54.616;39.786;2023-07-13T11:47:51;5.97;;;1.88;;
49626;SDS011;35527;54.616;39.786;2023-07-13T11:50:56;3.28;;;1.50;;
49626;SDS011;35527;54.616;39.786;2023-07-13T11:54:10;5.15;;;1.80;;
49626;SDS011;35527;54.616;39.786;2023-07-13T11:57:38;4.70;;;1.77;;
49626;SDS011;35527;54.616;39.786;2023-07-13T12:00:48;4.10;;;1.80;;
49626;SDS011;35527;54.616;39.786;2023-07-13T12:03:55;3.28;;;1.52;;
49626;SDS011;35527;54.616;39.786;2023-07-13T12:07:05;5.63;;;1.73;;
49626;SDS011;35527;54.616;39.786;2023-07-13T12:10:18;2.65;;;1.48;;
49626;SDS011;35527;54.616;39.786;2023-07-13T12:13:26;4.18;;;1.77;;
49626;SDS011;35527;54.616;39.786;2023-07-13T12:16:32;4.20;;;1.60;;
49626;SDS011;35527;54.616;39.786;2023-07-13T12:19:41;4.07;;;1.60;;
49626;SDS011;35527;54.616;39.786;2023-07-13T12:22:45;7.05;;;2.13;;
49626;SDS011;35527;54.616;39.786;2023-07-13T12:25:49;6.40;;;1.98;;
49626;SDS011;35527;54.616;39.786;2023-07-13T12:28:53;6.28;;;1.80;;
49626;SDS011;35527;54.616;39.786;2023-07-13T12:32:01;3.10;;;1.65;;
49626;SDS011;35527;54.616;39.786;2023-07-13T12:35:13;5.13;;;1.92;;
49626;SDS011;35527;54.616;39.786;2023-07-13T12:38:18;5.80;;;2.20;;
49626;SDS011;35527;54.616;39.786;2023-07-13T12:41:24;6.90;;;2.30;;
49626;SDS011;35527;54.616;39.786;2023-07-13T12:44:29;6.95;;;2.20;;
49626;SDS011;35527;54.616;39.786;2023-07-13T12:47:41;6.70;;;2.30;;
49626;SDS011;35527;54.616;39.786;2023-07-13T12:50:46;6.95;;;2.10;;
49626;SDS011;35527;54.616;39.786;2023-07-13T12:54:04;5.53;;;2.22;;
49626;SDS011;35527;54.616;39.786;2023-07-13T12:57:16;5.90;;;2.28;;
49626;SDS011;35527;54.616;39.786;2023-07-13T13:00:25;5.00;;;2.00;;
49626;SDS011;35527;54.616;39.786;2023-07-13T13:06:39;6.13;;;2.22;;
49626;SDS011;35527;54.616;39.786;2023-07-13T13:09:45;8.25;;;2.28;;
49626;SDS011;35527;54.616;39.786;2023-07-13T13:12:50;6.13;;;2.08;;
49626;SDS011;35527;54.616;39.786;2023-07-13T13:15:54;5.18;;;2.20;;
49626;SDS011;35527;54.616;39.786;2023-07-13T13:19:00;5.63;;;2.10;;
49626;SDS011;35527;54.616;39.786;2023-07-13T13:22:16;5.13;;;2.10;;
49626;SDS011;35527;54.616;39.786;2023-07-13T13:25:19;4.50;;;1.92;;
49626;SDS011;35527;54.616;39.786;2023-07-13T13:28:22;4.10;;;1.90;;
49626;SDS011;35527;54.616;39.786;2023-07-13T13:31:25;2.58;;;1.38;;
49626;SDS011;35527;54.616;39.786;2023-07-13T13:34:28;4.82;;;1.50;;
49626;SDS011;35527;54.616;39.786;2023-07-13T13:37:34;4.03;;;1.65;;
49626;SDS011;35527;54.616;39.786;2023-07-13T13:40:37;3.92;;;1.35;;
49626;SDS011;35527;54.616;39.786;2023-07-13T13:43:42;4.90;;;1.52;;
49626;SDS011;35527;54.616;39.786;2023-07-13T13:46:49;6.60;;;2.13;;
49626;SDS011;35527;54.616;39.786;2023-07-13T13:49:55;5.10;;;2.03;;
49626;SDS011;35527;54.616;39.786;2023-07-13T13:52:58;3.67;;;1.63;;
49626;SDS011;35527;54.616;39.786;2023-07-13T13:56:01;7.38;;;1.95;;
49626;SDS011;35527;54.616;39.786;2023-07-13T13:59:04;5.65;;;2.35;;
49626;SDS011;35527;54.616;39.786;2023-07-13T14:02:14;3.97;;;2.03;;
49626;SDS011;35527;54.616;39.786;2023-07-13T14:05:33;6.38;;;2.17;;
49626;SDS011;35527;54.616;39.786;2023-07-13T14:08:36;5.15;;;2.15;;
49626;SDS011;35527;54.616;39.786;2023-07-13T14:11:42;7.65;;;2.90;;
49626;SDS011;35527;54.616;39.786;2023-07-13T14:14:47;6.15;;;3.28;;
49626;SDS011;35527;54.616;39.786;2023-07-13T14:17:52;7.30;;;3.63;;
49626;SDS011;35527;54.616;39.786;2023-07-13T14:20:56;6.60;;;3.45;;
49626;SDS011;35527;54.616;39.786;2023-07-13T14:24:01;6.28;;;3.30;;
49626;SDS011;35527;54.616;39.786;2023-07-13T14:27:04;6.15;;;3.20;;
49626;SDS011;35527;54.616;39.786;2023-07-13T14:30:14;6.80;;;2.88;;
49626;SDS011;35527;54.616;39.786;2023-07-13T14:33:18;4.43;;;2.28;;
49626;SDS011;35527;54.616;39.786;2023-07-13T14:36:29;4.47;;;2.35;;
49626;SDS011;35527;54.616;39.786;2023-07-13T14:39:34;4.90;;;2.00;;
49626;SDS011;35527;54.616;39.786;2023-07-13T14:42:37;3.78;;;1.90;;
49626;SDS011;35527;54.616;39.786;2023-07-13T14:45:46;4.22;;;2.10;;
49626;SDS011;35527;54.616;39.786;2023-07-13T14:49:07;4.63;;;2.40;;
49626;SDS011;35527;54.616;39.786;2023-07-13T14:52:28;5.18;;;2.22;;
49626;SDS011;35527;54.616;39.786;2023-07-13T14:55:31;5.00;;;2.33;;
49626;SDS011;35527;54.616;39.786;2023-07-13T14:58:39;6.05;;;2.08;;
49626;SDS011;35527;54.616;39.786;2023-07-13T15:01:44;5.20;;;2.80;;
49626;SDS011;35527;54.616;39.786;2023-07-13T15:04:48;5.67;;;3.30;;
49626;SDS011;35527;54.616;39.786;2023-07-13T15:07:52;5.65;;;2.80;;
49626;SDS011;35527;54.616;39.786;2023-07-13T15:10:59;5.35;;;2.67;;
49626;SDS011;35527;54.616;39.786;2023-07-13T15:14:03;6.00;;;2.75;;
49626;SDS011;35527;54.616;39.786;2023-07-13T15:17:18;6.32;;;2.55;;
49626;SDS011;35527;54.616;39.786;2023-07-13T15:20:45;6.40;;;3.33;;
49626;SDS011;35527;54.616;39.786;2023-07-13T15:23:49;4.63;;;2.50;;
49626;SDS011;35527;54.616;39.786;2023-07-13T15:26:53;4.65;;;2.45;;
49626;SDS011;35527;54.616;39.786;2023-07-13T15:29:57;4.68;;;2.30;;
49626;SDS011;35527;54.616;39.786;2023-07-13T15:33:05;5.95;;;2.53;;
49626;SDS011;35527;54.616;39.786;2023-07-13T15:36:22;4.70;;;2.10;;
49626;SDS011;35527;54.616;39.786;2023-07-13T15:39:32;6.80;;;2.60;;
49626;SDS011;35527;54.616;39.786;2023-07-13T15:42:38;5.85;;;2.40;;
49626;SDS011;35527;54.616;39.786;2023-07-13T15:45:44;4.75;;;2.47;;
49626;SDS011;35527;54.616;39.786;2023-07-13T15:51:53;4.82;;;2.53;;
49626;SDS011;35527;54.616;39.786;2023-07-13T15:54:58;5.53;;;2.67;;
49626;SDS011;35527;54.616;39.786;2023-07-13T15:58:03;5.60;;;2.25;;
49626;SDS011;35527;54.616;39.786;2023-07-13T16:01:08;4.65;;;2.47;;
49626;SDS011;35527;54.616;39.786;2023-07-13T16:04:15;6.07;;;2.92;;
49626;SDS011;35527;54.616;39.786;2023-07-13T16:07:19;6.32;;;3.00;;
49626;SDS011;35527;54.616;39.786;2023-07-13T16:10:32;6.68;;;2.67;;
49626;SDS011;35527;54.616;39.786;2023-07-13T16:13:39;5.07;;;2.63;;
49626;SDS011;35527;54.616;39.786;2023-07-13T16:16:44;4.32;;;2.42;;
49626;SDS011;35527;54.616;39.786;2023-07-13T16:19:48;5.63;;;2.28;;
49626;SDS011;35527;54.616;39.786;2023-07-13T16:22:51;6.45;;;2.60;;
49626;SDS011;35527;54.616;39.786;2023-07-13T16:25:56;4.50;;;2.60;;
49626;SDS011;35527;54.616;39.786;2023-07-13T16:29:03;5.30;;;2.60;;
49626;SDS011;35527;54.616;39.786;2023-07-13T16:32:08;5.72;;;2.80;;
49626;SDS011;35527;54.616;39.786;2023-07-13T16:35:13;6.70;;;2.70;;
49626;SDS011;35527;54.616;39.786;2023-07-13T16:38:19;6.05;;;3.30;;
49626;SDS011;35527;54.616;39.786;2023-07-13T16:41:23;5.55;;;2.80;;
49626;SDS011;35527;54.616;39.786;2023-07-13T16:44:29;5.90;;;3.25;;
49626;SDS011;35527;54.616;39.786;2023-07-13T16:47:37;5.43;;;2.92;;
49626;SDS011;35527;54.616;39.786;2023-07-13T16:50:43;5.07;;;2.58;;
49626;SDS011;35527;54.616;39.786;2023-07-13T16:53:49;4.40;;;2.60;;
49626;SDS011;35527;54.616;39.786;2023-07-13T16:56:54;5.40;;;2.80;;
49626;SDS011;35527;54.616;39.786;2023-07-13T16:59:57;4.20;;;2.40;;
49626;SDS011;35527;54.616;39.786;2023-07-13T17:03:05;4.82;;;2.53;;
49626;SDS011;35527;54.616;39.786;2023-07-13T17:06:19;6.47;;;3.70;;
49626;SDS011;35527;54.616;39.786;2023-07-13T17:09:25;7.50;;;4.03;;
49626;SDS011;35527;54.616;39.786;2023-07-13T17:12:29;11.77;;;9.55;;
49626;SDS011;35527;54.616;39.786;2023-07-13T17:15:32;7.38;;;5.47;;
49626;SDS011;35527;54.616;39.786;2023-07-13T17:18:38;8.20;;;5.38;;
49626;SDS011;35527;54.616;39.786;2023-07-13T17:21:46;7.85;;;5.32;;
49626;SDS011;35527;54.616;39.786;2023-07-13T17:24:49;8.73;;;6.88;;
49626;SDS011;35527;54.616;39.786;2023-07-13T17:27:52;7.88;;;6.00;;
49626;SDS011;35527;54.616;39.786;2023-07-13T17:30:55;8.35;;;5.82;;
49626;SDS011;35527;54.616;39.786;2023-07-13T17:34:00;9.10;;;5.60;;
49626;SDS011;35527;54.616;39.786;2023-07-13T17:37:04;7.28;;;4.00;;
49626;SDS011;35527;54.616;39.786;2023-07-13T17:40:13;6.55;;;4.00;;
49626;SDS011;35527;54.616;39.786;2023-07-13T17:43:20;5.95;;;3.58;;
49626;SDS011;35527;54.616;39.786;2023-07-13T17:46:29;7.03;;;4.20;;
49626;SDS011;35527;54.616;39.786;2023-07-13T17:49:37;7.50;;;4.90;;
49626;SDS011;35527;54.616;39.786;2023-07-13T17:52:39;10.43;;;5.80;;
49626;SDS011;35527;54.616;39.786;2023-07-13T17:55:43;10.45;;;7.03;;
49626;SDS011;35527;54.616;39.786;2023-07-13T17:58:46;12.77;;;5.95;;
49626;SDS011;35527;54.616;39.786;2023-07-13T18:01:49;11.50;;;4.45;;
49626;SDS011;35527;54.616;39.786;2023-07-13T18:04:53;15.43;;;6.45;;
49626;SDS011;35527;54.616;39.786;2023-07-13T18:07:59;10.65;;;4.70;;
49626;SDS011;35527;54.616;39.786;2023-07-13T18:11:08;9.63;;;4.18;;
49626;SDS011;35527;54.616;39.786;2023-07-13T18:14:12;11.15;;;4.95;;
49626;SDS011;35527;54.616;39.786;2023-07-13T18:17:16;11.18;;;5.53;;
49626;SDS011;35527;54.616;39.786;2023-07-13T18:20:21;9.45;;;4.50;;
49626;SDS011;35527;54.616;39.786;2023-07-13T18:23:25;16.40;;;6.07;;
49626;SDS011;35527;54.616;39.786;2023-07-13T18:26:33;13.80;;;6.20;;
49626;SDS011;35527;54.616;39.786;2023-07-13T18:29:36;19.15;;;7.20;;
49626;SDS011;35527;54.616;39.786;2023-07-13T18:32:40;27.17;;;10.32;;
49626;SDS011;35527;54.616;39.786;2023-07-13T18:35:51;35.00;;;14.88;;
49626;SDS011;35527;54.616;39.786;2023-07-13T18:38:55;30.93;;;11.73;;
49626;SDS011;35527;54.616;39.786;2023-07-13T18:41:59;15.15;;;6.32;;
49626;SDS011;35527;54.616;39.786;2023-07-13T18:45:05;10.98;;;4.30;;
49626;SDS011;35527;54.616;39.786;2023-07-13T18:48:21;9.05;;;4.25;;
49626;SDS011;35527;54.616;39.786;2023-07-13T18:51:26;8.15;;;3.53;;
49626;SDS011;35527;54.616;39.786;2023-07-13T18:54:29;9.55;;;4.28;;
49626;SDS011;35527;54.616;39.786;2023-07-13T18:57:35;11.10;;;4.78;;
49626;SDS011;35527;54.616;39.786;2023-07-13T19:00:39;17.15;;;6.60;;